createdAt,value
2022-12-25T00:00:34.039Z,100357.56
2022-12-25T00:05:58.857Z,100359.20
2022-12-25T00:11:04.964Z,100355.31
2022-12-25T00:16:10.324Z,100356.65
2022-12-25T00:21:14.312Z,100356.59
2022-12-25T00:26:17.825Z,100363.20
2022-12-25T00:31:21.398Z,100365.79
2022-12-25T00:36:24.538Z,100365.30
2022-12-25T00:41:46.263Z,100368.38
2022-12-25T00:46:49.090Z,100378.65
2022-12-25T00:51:52.789Z,100386.34
2022-12-25T00:56:55.537Z,100392.15
2022-12-25T01:02:18.674Z,100404.38
2022-12-25T01:07:23.907Z,100414.25
2022-12-25T01:12:26.748Z,100419.79
2022-12-25T01:17:29.484Z,100425.91
2022-12-25T01:22:32.176Z,100433.89
2022-12-25T01:27:35.468Z,100428.61
2022-12-25T01:32:38.503Z,100426.25
2022-12-25T01:37:41.306Z,100435.35
2022-12-25T01:42:44.501Z,100441.05
2022-12-25T01:47:47.505Z,100434.80
2022-12-25T01:52:51.719Z,100428.84
2022-12-25T01:57:54.815Z,100424.11
2022-12-25T02:02:58.674Z,100416.63
2022-12-25T02:08:07.935Z,100414.72
2022-12-25T02:13:17.055Z,100416.20
2022-12-25T02:18:32.929Z,100434.19
2022-12-25T02:23:51.052Z,100436.92
2022-12-25T02:29:01.951Z,100441.52
2022-12-25T02:34:17.530Z,100451.80
2022-12-25T02:39:45.279Z,100451.75
2022-12-25T02:45:10.135Z,100446.48
2022-12-25T02:50:34.581Z,100449.58
2022-12-25T02:56:02.047Z,100446.16
2022-12-25T03:01:29.290Z,100447.11
2022-12-25T03:06:43.954Z,100455.95
2022-12-25T03:11:54.771Z,100457.34
2022-12-25T03:16:59.861Z,100459.55
2022-12-25T03:22:23.698Z,100459.94
2022-12-25T03:27:31.797Z,100461.54
2022-12-25T03:32:37.527Z,100455.37
2022-12-25T03:38:08.070Z,100457.26
2022-12-25T03:43:55.659Z,100457.45
2022-12-25T03:49:26.250Z,100456.27
2022-12-25T03:54:52.120Z,100457.23
2022-12-25T04:00:13.572Z,100459.88
2022-12-25T04:05:34.912Z,100471.00
2022-12-25T04:10:56.167Z,100469.44
2022-12-25T04:16:17.364Z,100470.28
2022-12-25T04:21:38.923Z,100462.42
2022-12-25T04:27:00.443Z,100463.83
2022-12-25T04:32:21.992Z,100475.35
2022-12-25T04:37:24.727Z,100485.83
2022-12-25T04:42:27.459Z,100477.93
2022-12-25T04:47:30.204Z,100472.58
2022-12-25T04:52:37.692Z,100472.33
2022-12-25T04:57:40.471Z,100476.16
2022-12-25T05:02:43.388Z,100474.11
2022-12-25T05:07:46.414Z,100475.80
2022-12-25T05:12:49.178Z,100485.08
2022-12-25T05:17:51.938Z,100484.95
2022-12-25T05:22:54.686Z,100484.88
2022-12-25T05:27:57.496Z,100488.06
2022-12-25T05:33:00.558Z,100499.89
2022-12-25T05:38:03.980Z,100508.50
2022-12-25T05:43:07.030Z,100511.67
2022-12-25T05:48:09.942Z,100513.96
2022-12-25T05:53:14.778Z,100512.09
2022-12-25T05:58:17.538Z,100517.04
2022-12-25T06:03:20.347Z,100520.60
2022-12-25T06:08:23.211Z,100519.58
2022-12-25T06:13:25.938Z,100528.36
2022-12-25T06:18:28.699Z,100533.52
2022-12-25T06:23:31.723Z,100536.77
2022-12-25T06:28:34.986Z,100547.33
2022-12-25T06:33:38.407Z,100557.05
2022-12-25T06:38:41.809Z,100562.56
2022-12-25T06:43:49.342Z,100571.52
2022-12-25T06:48:53.688Z,100572.08
2022-12-25T06:53:57.441Z,100588.54
2022-12-25T06:59:09.159Z,100607.75
2022-12-25T07:04:21.250Z,100624.27
2022-12-25T07:09:24.202Z,100627.64
2022-12-25T07:14:26.938Z,100625.13
2022-12-25T07:19:29.704Z,100628.48
2022-12-25T07:24:32.504Z,100640.96
2022-12-25T07:29:35.278Z,100646.20
2022-12-25T07:34:38.021Z,100655.22
2022-12-25T07:39:40.837Z,100662.73
2022-12-25T07:44:43.931Z,100669.69
2022-12-25T07:49:46.722Z,100675.94
2022-12-25T07:54:49.477Z,100676.53
2022-12-25T07:59:52.241Z,100682.95
2022-12-25T08:04:55.440Z,100682.64
2022-12-25T08:09:58.178Z,100682.14
2022-12-25T08:15:00.927Z,100691.88
2022-12-25T08:20:04.140Z,100698.71
2022-12-25T08:25:07.288Z,100706.33
2022-12-25T08:30:10.316Z,100711.29
2022-12-25T08:35:13.284Z,100710.21
2022-12-25T08:40:16.182Z,100713.54
2022-12-25T08:45:18.977Z,100712.93
2022-12-25T08:50:25.704Z,100719.98
2022-12-25T08:55:28.603Z,100728.39
2022-12-25T09:00:31.873Z,100722.46
2022-12-25T09:05:36.332Z,100717.45
2022-12-25T09:10:39.075Z,100716.73
2022-12-25T09:15:42.022Z,100717.53
2022-12-25T09:20:44.804Z,100720.86
2022-12-25T09:25:47.578Z,100725.75
2022-12-25T09:30:52.298Z,100728.79
2022-12-25T09:35:58.099Z,100723.39
2022-12-25T09:41:22.957Z,100722.02
2022-12-25T09:46:34.796Z,100725.98
2022-12-25T09:51:42.303Z,100731.27
2022-12-25T09:56:45.074Z,100733.89
2022-12-25T10:02:11.985Z,100729.19
2022-12-25T10:07:48.639Z,100737.41
2022-12-25T10:13:01.006Z,100742.11
2022-12-25T10:18:31.291Z,100734.17
2022-12-25T10:23:41.061Z,100735.52
2022-12-25T10:28:47.070Z,100745.36
2022-12-25T10:33:52.850Z,100746.05
2022-12-25T10:38:56.403Z,100741.50
2022-12-25T10:43:59.260Z,100724.27
2022-12-25T10:49:03.932Z,100724.67
2022-12-25T10:54:35.201Z,100724.31
2022-12-25T10:59:44.310Z,100719.55
2022-12-25T11:04:48.136Z,100722.45
2022-12-25T11:10:05.614Z,100722.55
2022-12-25T11:15:37.242Z,100718.73
2022-12-25T11:20:49.652Z,100714.48
2022-12-25T11:26:07.285Z,100723.61
2022-12-25T11:31:15.467Z,100731.70
2022-12-25T11:36:26.813Z,100732.91
2022-12-25T11:41:34.422Z,100739.09
2022-12-25T11:46:48.679Z,100743.14
2022-12-25T11:51:55.654Z,100747.58
2022-12-25T11:57:03.530Z,100748.10
2022-12-25T12:02:23.153Z,100759.61
2022-12-25T12:07:32.278Z,100759.02
2022-12-25T12:12:49.232Z,100755.77
2022-12-25T12:17:53.270Z,100757.13
2022-12-25T12:22:56.844Z,100752.82
2022-12-25T12:28:05.644Z,100745.60
2022-12-25T12:33:20.742Z,100735.11
2022-12-25T12:38:24.966Z,100731.65
2022-12-25T12:43:34.401Z,100731.82
2022-12-25T12:48:41.413Z,100733.88
2022-12-25T12:53:44.822Z,100736.91
2022-12-25T12:58:50.981Z,100732.39
2022-12-25T13:03:59.745Z,100733.25
2022-12-25T13:09:33.655Z,100738.61
2022-12-25T13:14:38.115Z,100747.97
2022-12-25T13:19:43.029Z,100748.88
2022-12-25T13:24:56.275Z,100754.99
2022-12-25T13:29:59.617Z,100753.36
2022-12-25T13:35:02.502Z,100745.80
2022-12-25T13:40:26.159Z,100743.21
2022-12-25T13:45:31.002Z,100744.27
2022-12-25T13:50:35.173Z,100746.14
2022-12-25T13:55:38.097Z,100752.93
2022-12-25T14:00:48.113Z,100749.90
2022-12-25T14:06:01.760Z,100749.96
2022-12-25T14:11:06.567Z,100744.88
2022-12-25T14:16:10.310Z,100742.21
2022-12-25T14:21:22.899Z,100737.17
2022-12-25T14:26:29.594Z,100739.16
2022-12-25T14:31:34.301Z,100752.08
2022-12-25T14:36:37.953Z,100765.75
2022-12-25T14:41:42.290Z,100775.54
2022-12-25T14:46:45.150Z,100792.38
2022-12-25T14:51:48.032Z,100791.84
2022-12-25T14:56:55.943Z,100793.23
2022-12-25T15:02:03.560Z,100796.20
2022-12-25T15:07:09.683Z,100791.19
2022-12-25T15:12:13.143Z,100788.28
2022-12-25T15:17:36.655Z,100783.95
2022-12-25T15:23:10.168Z,100773.45
2022-12-25T15:28:05.609Z,100783.04
2022-12-25T15:33:14.547Z,100782.19
2022-12-25T15:38:17.351Z,100779.21
2022-12-25T15:43:40.083Z,100767.14
2022-12-25T15:48:42.931Z,100755.25
2022-12-25T15:53:45.697Z,100741.25
2022-12-25T15:58:48.515Z,100736.85
2022-12-25T16:03:51.729Z,100736.27
2022-12-25T16:08:54.548Z,100753.40
2022-12-25T16:13:57.274Z,100779.91
2022-12-25T16:19:00.270Z,100776.73
2022-12-25T16:24:03.172Z,100770.27
2022-12-25T16:29:07.932Z,100775.12
2022-12-25T16:34:11.418Z,100779.67
2022-12-25T16:39:14.152Z,100779.94
2022-12-25T16:44:16.932Z,100774.30
2022-12-25T16:49:19.848Z,100769.98
2022-12-25T16:54:22.663Z,100777.53
2022-12-25T16:59:25.442Z,100763.45
2022-12-25T17:04:28.354Z,100760.83
2022-12-25T17:09:31.577Z,100763.70
2022-12-25T17:14:35.886Z,100764.53
2022-12-25T17:19:38.860Z,100762.10
2022-12-25T17:24:41.664Z,100756.08
2022-12-25T17:29:45.470Z,100752.98
2022-12-25T17:34:48.286Z,100747.13
2022-12-25T17:39:50.981Z,100748.20
2022-12-25T17:44:53.939Z,100748.60
2022-12-25T17:49:56.813Z,100742.80
2022-12-25T17:54:59.598Z,100749.02
2022-12-25T18:00:02.437Z,100747.67
2022-12-25T18:05:05.685Z,100740.61
2022-12-25T18:10:10.477Z,100734.91
2022-12-25T18:15:13.288Z,100734.89
2022-12-25T18:20:16.098Z,100728.88
2022-12-25T18:25:18.954Z,100725.29
2022-12-25T18:30:21.742Z,100713.46
2022-12-25T18:35:29.179Z,100709.67
2022-12-25T18:40:32.462Z,100714.50
2022-12-25T18:45:35.627Z,100711.59
2022-12-25T18:50:40.734Z,100715.03
2022-12-25T18:55:43.473Z,100717.32
2022-12-25T19:00:46.433Z,100711.52
2022-12-25T19:05:49.538Z,100702.78
2022-12-25T19:10:52.430Z,100692.83
2022-12-25T19:15:58.817Z,100681.67
2022-12-25T19:21:04.264Z,100680.30
2022-12-25T19:26:08.585Z,100674.96
2022-12-25T19:31:11.835Z,100671.55
2022-12-25T19:36:17.813Z,100665.20
2022-12-25T19:41:20.640Z,100659.34
2022-12-25T19:46:27.372Z,100654.88
2022-12-25T19:51:33.388Z,100643.89
2022-12-25T19:56:36.229Z,100640.42
2022-12-25T20:01:39.456Z,100639.89
2022-12-25T20:06:45.273Z,100647.40
2022-12-25T20:11:48.807Z,100654.92
2022-12-25T20:16:51.664Z,100657.12
2022-12-25T20:21:54.788Z,100652.28
2022-12-25T20:26:59.500Z,100647.13
2022-12-25T20:32:02.877Z,100648.36
2022-12-25T20:37:05.741Z,100650.17
2022-12-25T20:42:08.579Z,100654.20
2022-12-25T20:47:11.349Z,100648.42
2022-12-25T20:52:14.126Z,100636.92
2022-12-25T20:57:16.904Z,100633.85
2022-12-25T21:02:34.620Z,100627.30
2022-12-25T21:07:39.997Z,100618.67
2022-12-25T21:12:44.428Z,100603.31
2022-12-25T21:17:47.159Z,100602.06
2022-12-25T21:22:49.891Z,100600.33
2022-12-25T21:27:53.119Z,100590.02
2022-12-25T21:33:17.005Z,100577.98
2022-12-25T21:38:22.456Z,100564.58
2022-12-25T21:43:25.788Z,100552.89
2022-12-25T21:48:28.819Z,100557.39
2022-12-25T21:53:31.596Z,100559.52
2022-12-25T21:58:34.817Z,100548.85
2022-12-25T22:03:38.016Z,100531.80
2022-12-25T22:08:40.888Z,100532.69
2022-12-25T22:14:02.451Z,100527.55
2022-12-25T22:19:25.292Z,100508.43
2022-12-25T22:24:29.144Z,100501.37
2022-12-25T22:29:31.937Z,100486.89
2022-12-25T22:34:34.812Z,100471.91
2022-12-25T22:39:37.517Z,100459.16
2022-12-25T22:44:40.297Z,100449.70
2022-12-25T22:49:43.061Z,100441.77
2022-12-25T22:54:45.927Z,100433.35
2022-12-25T22:59:48.739Z,100418.71
2022-12-25T23:04:51.580Z,100414.60
2022-12-25T23:09:54.411Z,100414.80
2022-12-25T23:14:57.967Z,100409.14
2022-12-25T23:20:19.640Z,100394.18
2022-12-25T23:25:41.269Z,100384.89
2022-12-25T23:30:44.063Z,100366.65
2022-12-25T23:35:46.787Z,100376.46
2022-12-25T23:40:49.516Z,100391.80
2022-12-25T23:45:52.415Z,100395.09
2022-12-25T23:50:55.255Z,100390.28
2022-12-25T23:55:58.824Z,100388.92
